logo
App data

1953: NATO vs Warsaw Pact

1953: NATO vs Warsaw Pact is a game where World War III becomes a reality. Will once again this conflict become a panzer corps’ clash of steel, or maybe the strategic command will decide to nuke the enemy out of the globe.
Store | Hub | SteamDB | Site
Developer: Wastelands Interactive Publisher: Wastelands Interactive
Genre: Strategy, Early Access
Languages: English
Tags: Early Access (39), Strategy (35), Wargame (15), Turn-Based Strategy (13), Turn-Based (12), Grand Strategy (11), Cold War (6)
Category: Single-player, Steam Trading Cards
Release date: Dec 4, 2014
Price: $3.99 80%
Old userscore: 25% Owners: 0 .. 20,000
Followers: 431
Peak concurrent players yesterday: 1
Playtime total: 05:47 (average) 05:47 (median)

Steam Spy is still in beta, so expect major bugs.

Owners data:

Access restricted.

This feature is only available to users with special access rights. Sorry.

If you want to proceed, you need to register or log in first and then back Steam Spy on Patreon. Look for Indie or Pro pledge.

Don't forget to use the same email as on Steam Spy!

Audience in 2 weeks:

Access restricted.

This feature is only available to users with special access rights. Sorry.

If you want to proceed, you need to register or log in first and then back Steam Spy on Patreon. Look for Indie or Pro pledge.

Don't forget to use the same email as on Steam Spy!

Peak daily concurrent players:

CCU data courtesy of SteamDB. Used with permission.

Hourly concurrent players:

YouTube:

The views data is based on top 50 videos uploaded last week. Actual number of views might be more than the number shown.

The displayed number of videos uploaded yesterday is limited to 50, so if there were more videos uploaded, the number will still show 50.

If the game has commonly used word as its name (like "FEAR" or "Volume") its number of Youtube views might be wrong.

Games similar to this one:

# Game Release date
Price
Score rank
(Userscore / Metascore)
Owners
Players
Playtime (Median)
1 GamersGoMakers Aug 8, 2014 $8.99N/A (N/A)20,000 .. 50,0000%00:00 (00:00)
2 Governor of Poker 2 - Premium Edition Oct 11, 2010 $14.99N/A (N/A)20,000 .. 50,0000%00:00 (00:00)
3 Blob From Space Oct 15, 2014 $5.99N/A (N/A)20,000 .. 50,0000%00:00 (00:00)
4 Divide By Sheep Jul 2, 2015 $4.99N/A (N/A/83%)5,000,000 .. 10,000,0000%00:00 (00:00)
5 Quantum Rush Champions Dec 4, 2014 $9.99N/A (N/A)20,000 .. 50,0000%00:00 (00:00)
6 MXGP - The Official Motocross Videogame Mar 28, 2014 $9.99N/A (N/A)100,000 .. 200,00020%00:01 (00:00)
7 This Starry Midnight We Make Jun 1, 2015 $9.99N/A (N/A)0 .. 20,0000%00:00 (00:00)
8 Ionball 2: Ionstorm Jun 6, 2014 $4.99N/A (N/A/70%)200,000 .. 500,0000%00:00 (00:00)
9 Meadowland Oct 22, 2014 $0.79N/A (N/A)0 .. 20,0000%00:00 (00:00)
10 Automation - The Car Company Tycoon Game Mar 12, 2015 $29.99N/A (N/A)100,000 .. 200,0000%00:00 (00:00)
11 Cosmonautica Jul 31, 2015 $9.99N/A (N/A)200,000 .. 500,0000%00:00 (00:00)
12 CAPSULE May 29, 2014 $4.99N/A (N/A)20,000 .. 50,0000%00:00 (00:00)
13 Laserlife Sep 22, 2015 $9.99N/A (N/A)20,000 .. 50,0000%00:00 (00:00)
14 Wildlife Park 2 Jul 17, 2014 $6.99N/A (N/A)100,000 .. 200,0000%00:00 (00:00)
15 Alchemy Mysteries: Prague Legends Dec 22, 2014 $1.99N/A (N/A)100,000 .. 200,0000%00:00 (00:00)
16 Metrocide Dec 15, 2014 $12.99N/A (N/A/68%)50,000 .. 100,0000%00:00 (00:00)
17 Crab Cakes Rescue Nov 14, 2014 $6.99N/A (N/A)20,000 .. 50,0000%00:00 (00:00)
18 Egg Returns Home May 5, 2015 $0.99N/A (N/A)20,000 .. 50,0000%00:00 (00:00)
19 Way to Go! Jun 8, 2015 $4.99N/A (N/A)0 .. 20,0000%00:00 (00:00)
20 The Architect Jun 4, 2015 N/AN/A (N/A)0 .. 20,0000%00:00 (00:00)
21 Marble Duel Nov 12, 2015 $14.99N/A (N/A)50,000 .. 100,0000%00:00 (00:00)
22 Space Drifters 2D Mar 28, 2016 $0.99N/A (N/A)20,000 .. 50,0000%00:00 (00:00)
23 Crashed Lander Feb 4, 2015 $4.99N/A (N/A)0 .. 20,0000%00:00 (00:00)
24 Koala Kids Jun 22, 2015 $1.99N/A (N/A)20,000 .. 50,0000%00:00 (00:00)
25 Pixel Survivors May 5, 2016 $3.99N/A (N/A)50,000 .. 100,0000%00:00 (00:00)
26 Star Chronicles: Delta Quadrant Jul 7, 2015 $0.49N/A (N/A)200,000 .. 500,0000%00:00 (00:00)
27 Crash Drive 2 May 28, 2015 $4.99N/A (N/A)50,000 .. 100,0000%00:00 (00:00)
28 Guardians of Victoria Apr 29, 2016 $0.49N/A (N/A)200,000 .. 500,0000%00:00 (00:00)
29 Pixel Puzzles 2: Birds Feb 20, 2015 $2.99N/A (N/A)200,000 .. 500,0000%00:00 (00:00)
30 Alpha Runner Sep 2, 2015 $0.99N/A (N/A)100,000 .. 200,0000%00:00 (00:00)
31 Stay Alight Mar 2, 2015 $3.99N/A (N/A)50,000 .. 100,0000%00:00 (00:00)
32 In Between Aug 21, 2015 $11.99N/A (N/A/68%)50,000 .. 100,0000%00:00 (00:00)
33 Unium Mar 27, 2015 $1.99N/A (N/A)0 .. 20,0000%00:00 (00:00)
34 Tyler Jan 14, 2016 $2.99N/A (N/A)0 .. 20,0000%00:00 (00:00)
35 The Deletion Jul 30, 2015 $1.99N/A (N/A)20,000 .. 50,0000%00:00 (00:00)
36 Moonlight Feb 5, 2016 $4.99N/A (N/A)0 .. 20,0000%00:00 (00:00)
37 Evolution Jun 6, 2016 FreeN/A (N/A)20,000 .. 50,0000%00:00 (00:00)
38 Until I Have You Apr 4, 2016 $13.99N/A (N/A/69%)0 .. 20,0000%00:00 (00:00)
39 Ace Of Words May 13, 2016 $4.99N/A (N/A)100,000 .. 200,0000%00:00 (00:00)
40 Night Blights Apr 15, 2016 $6.99N/A (N/A)0 .. 20,0000%00:00 (00:00)
41 Anode Oct 5, 2015 $3.99N/A (N/A)20,000 .. 50,0000%00:00 (00:00)
42 Caravanserail Feb 26, 2016 $2.99N/A (N/A)20,000 .. 50,0000%00:00 (00:00)
43 The Last NightMary - A Lenda do Cabeça de Cuia Nov 2, 2015 $3.99N/A (N/A)50,000 .. 100,0000%00:00 (00:00)
44 Airstrike HD Mar 23, 2016 $1.99N/A (N/A)200,000 .. 500,0000%00:00 (00:00)
45 Goodnight Butcher Dec 18, 2015 $1.99N/A (N/A)20,000 .. 50,0000%00:00 (00:00)
46 Project Starship Apr 5, 2016 $0.99N/A (N/A)50,000 .. 100,0000%00:00 (00:00)
47 White Mirror Jan 26, 2016 $0.49N/A (N/A)200,000 .. 500,0000%00:00 (00:00)
48 The Battle for Sector 219 Jun 2, 2016 $6.99N/A (N/A)20,000 .. 50,0000%00:00 (00:00)
49 Iron Sea Defenders Sep 9, 2016 $4.99N/A (N/A)20,000 .. 50,0000%00:00 (00:00)
50 Forgotten, Not Lost - A Kinetic Novel Apr 1, 2016 $1.99N/A (N/A)20,000 .. 50,0000%00:00 (00:00)
51 Plight of the Zombie Feb 22, 2016 $2.99N/A (N/A)20,000 .. 50,0000%00:00 (00:00)
52 Crash Wheels Dec 20, 2018 $4.99N/A (N/A)50,000 .. 100,0000%00:00 (00:00)
53 Melting Hearts: Our Love Will Grow 2 Apr 29, 2016 N/AN/A (N/A)20,000 .. 50,0000%00:00 (00:00)
54 Luke Sidewalker Nov 25, 2016 $0.99N/A (N/A)50,000 .. 100,0000%00:00 (00:00)
55 BalanCity Sep 21, 2016 $7.99N/A (N/A)50,000 .. 100,0000%00:00 (00:00)
56 Space Beret Oct 25, 2016 $0.49N/A (N/A)200,000 .. 500,0000%00:00 (00:00)
57 Annie Amber Jun 17, 2016 $2.99N/A (N/A)0 .. 20,0000%00:00 (00:00)
58 Neon Prism Nov 18, 2016 $4.99N/A (N/A)50,000 .. 100,0000%00:00 (00:00)
59 BomberZone May 27, 2016 $0.99N/A (N/A)50,000 .. 100,0000%00:00 (00:00)
60 Estiman Nov 23, 2016 $0.99N/A (N/A)0 .. 20,0000%00:00 (00:00)
61 Autumn Sep 23, 2014 $2.99N/A (N/A)50,000 .. 100,0000%00:00 (00:00)
62 Attempt[42] Dec 8, 2016 $2.99N/A (N/A)50,000 .. 100,0000%00:00 (00:00)
63 Reset 1-1 Aug 30, 2016 $0.49N/A (N/A)50,000 .. 100,0000%00:00 (00:00)
64 Lobotomy Corporation | Monster Management Simulation Apr 9, 2018 $24.99N/A (N/A)200,000 .. 500,0000%00:00 (00:00)
65 Strategy & Tactics: Dark Ages Aug 4, 2017 $14.99N/A (N/A)50,000 .. 100,0000%00:00 (00:00)
66 Hoplite Dec 14, 2016 $0.99N/A (N/A)50,000 .. 100,0000%00:00 (00:00)
67 Won't You Be My Laser? Sep 2, 2016 $0.99N/A (N/A)0 .. 20,0000%00:00 (00:00)
68 Magic Box Jan 19, 2017 $0.49N/A (N/A)100,000 .. 200,0000%00:00 (00:00)

Tags over time:

Access restricted.

This feature is only available to users with special access rights. Sorry.

If you want to proceed, you need to register or log in first and then back Steam Spy on Patreon. Look for Indie or Pro pledge.

Don't forget to use the same email as on Steam Spy!

Owners of this game also own:

Access restricted.

This feature is only available to users with special access rights. Sorry.

If you want to proceed, you need to register or log in first and then back Steam Spy on Patreon. Look for Indie or Pro pledge.

Don't forget to use the same email as on Steam Spy!

Playtime distribution:

Access restricted.

This feature is only available to users with special access rights. Sorry.

If you want to proceed, you need to register or log in first and then back Steam Spy on Patreon. Look for Indie or Pro pledge.

Don't forget to use the same email as on Steam Spy!

Playtime (2 weeks):

Access restricted.

This feature is only available to users with special access rights. Sorry.

If you want to proceed, you need to register or log in first and then back Steam Spy on Patreon. Look for Indie or Pro pledge.

Don't forget to use the same email as on Steam Spy!

User reviews:

Login required.

Please register or log in to see this information.